Main page
METAR-TAF:

METAR-TAF

Airports :

Campo Grande International Airport

Campo Grande, Mato Grosso do Sul, Brazil

latitude: 20-28S, longitude: 054-40W, elevation: 567 m

Current weather observation

The report was made 10 minutes ago, at 11:00 UTC
Wind 6 kt from the Southeast
Temperature 14°C
Humidity 94%
Pressure 1020 hPa
Visibility 10 km or more
no clouds below 1500 m and no cumulonimbus

METAR: SBCG 121100Z 13006KT CAVOK 14/13 Q1020

Time: 07:10 (11:10 UTC)

Forecast

The report was made 10 hours and 10 minutes ago, at 01:00 UTC
Forecast valid from 12 at 06 UTC to 13 at 06 UTC
Wind 7 kt from the South/Southeast
Visibility 10 km or more
no clouds below 1500 m and no cumulonimbus

TAF: SBCG 120100Z 1206/1306 15007KT CAVOK TN13/1209Z TX23/1218Z RMK PGF

Weather observations and forecasts of more than 4000 airports (METAR and TAF reports).

The available stations are represented by yellow and red dots on the map.

Hover mouse over dot to see the name of the station.

Then click to see weather observations and forecasts.

To change the map : click on the green buttons with a black cross to zoom in, on the green button with a dash to zoom out, or on the green arrows for adjacent maps.


METAR-TAF: